sensor_id;sensor_type;location;lat;lon;timestamp;P1;durP1;ratioP1;P2;durP2;ratioP2
76107;SDS011;64834;52.516;10.528;2023-07-20T00:01:14;1.75;;;1.50;;
76107;SDS011;64834;52.516;10.528;2023-07-20T00:03:40;2.50;;;1.90;;
76107;SDS011;64834;52.516;10.528;2023-07-20T00:06:05;2.40;;;1.88;;
76107;SDS011;64834;52.516;10.528;2023-07-20T00:08:31;3.10;;;1.85;;
76107;SDS011;64834;52.516;10.528;2023-07-20T00:10:56;2.33;;;1.80;;
76107;SDS011;64834;52.516;10.528;2023-07-20T00:13:22;2.65;;;1.77;;
76107;SDS011;64834;52.516;10.528;2023-07-20T00:15:47;2.92;;;1.77;;
76107;SDS011;64834;52.516;10.528;2023-07-20T00:18:13;3.63;;;1.88;;
76107;SDS011;64834;52.516;10.528;2023-07-20T00:20:38;3.55;;;2.00;;
76107;SDS011;64834;52.516;10.528;2023-07-20T00:23:04;2.00;;;1.80;;
76107;SDS011;64834;52.516;10.528;2023-07-20T00:25:29;2.85;;;1.90;;
76107;SDS011;64834;52.516;10.528;2023-07-20T00:27:55;2.60;;;2.10;;
76107;SDS011;64834;52.516;10.528;2023-07-20T00:30:20;2.72;;;1.83;;
76107;SDS011;64834;52.516;10.528;2023-07-20T00:32:45;2.20;;;1.88;;
76107;SDS011;64834;52.516;10.528;2023-07-20T00:35:10;2.63;;;1.55;;
76107;SDS011;64834;52.516;10.528;2023-07-20T00:37:36;3.63;;;1.80;;
76107;SDS011;64834;52.516;10.528;2023-07-20T00:40:02;4.20;;;2.30;;
76107;SDS011;64834;52.516;10.528;2023-07-20T00:42:30;1.90;;;1.63;;
76107;SDS011;64834;52.516;10.528;2023-07-20T00:44:56;2.20;;;1.50;;
76107;SDS011;64834;52.516;10.528;2023-07-20T00:47:21;2.45;;;1.60;;
76107;SDS011;64834;52.516;10.528;2023-07-20T00:49:47;1.80;;;1.58;;
76107;SDS011;64834;52.516;10.528;2023-07-20T00:52:13;2.13;;;1.40;;
76107;SDS011;64834;52.516;10.528;2023-07-20T00:54:39;4.65;;;1.58;;
76107;SDS011;64834;52.516;10.528;2023-07-20T00:57:06;2.03;;;1.60;;
76107;SDS011;64834;52.516;10.528;2023-07-20T00:59:33;1.90;;;1.25;;
76107;SDS011;64834;52.516;10.528;2023-07-20T01:02:01;3.67;;;1.58;;
76107;SDS011;64834;52.516;10.528;2023-07-20T01:04:26;1.88;;;1.40;;
76107;SDS011;64834;52.516;10.528;2023-07-20T01:06:57;2.92;;;1.55;;
76107;SDS011;64834;52.516;10.528;2023-07-20T01:09:36;2.67;;;1.80;;
76107;SDS011;64834;52.516;10.528;2023-07-20T01:12:08;2.10;;;1.42;;
76107;SDS011;64834;52.516;10.528;2023-07-20T01:14:48;2.97;;;1.83;;
76107;SDS011;64834;52.516;10.528;2023-07-20T01:17:14;3.00;;;1.80;;
76107;SDS011;64834;52.516;10.528;2023-07-20T01:19:39;2.30;;;1.77;;
76107;SDS011;64834;52.516;10.528;2023-07-20T01:25:07;3.30;;;1.70;;
76107;SDS011;64834;52.516;10.528;2023-07-20T01:33:34;2.13;;;1.58;;
76107;SDS011;64834;52.516;10.528;2023-07-20T01:35:59;2.80;;;1.60;;
76107;SDS011;64834;52.516;10.528;2023-07-20T01:38:26;2.38;;;1.50;;
76107;SDS011;64834;52.516;10.528;2023-07-20T01:40:51;2.40;;;1.52;;
76107;SDS011;64834;52.516;10.528;2023-07-20T01:43:17;2.25;;;1.50;;
76107;SDS011;64834;52.516;10.528;2023-07-20T01:45:43;3.55;;;1.73;;
76107;SDS011;64834;52.516;10.528;2023-07-20T01:48:08;2.22;;;1.85;;
76107;SDS011;64834;52.516;10.528;2023-07-20T01:50:34;2.63;;;1.90;;
76107;SDS011;64834;52.516;10.528;2023-07-20T01:52:59;2.95;;;1.85;;
76107;SDS011;64834;52.516;10.528;2023-07-20T01:55:25;2.65;;;1.50;;
76107;SDS011;64834;52.516;10.528;2023-07-20T01:57:50;1.95;;;1.60;;
76107;SDS011;64834;52.516;10.528;2023-07-20T02:00:16;1.85;;;1.40;;
76107;SDS011;64834;52.516;10.528;2023-07-20T02:02:43;2.13;;;1.70;;
76107;SDS011;64834;52.516;10.528;2023-07-20T02:05:09;1.92;;;1.58;;
76107;SDS011;64834;52.516;10.528;2023-07-20T02:07:34;2.67;;;1.40;;
76107;SDS011;64834;52.516;10.528;2023-07-20T02:09:59;4.32;;;1.58;;
76107;SDS011;64834;52.516;10.528;2023-07-20T02:12:25;1.73;;;1.38;;
76107;SDS011;64834;52.516;10.528;2023-07-20T02:14:50;1.70;;;1.20;;
76107;SDS011;64834;52.516;10.528;2023-07-20T02:17:16;2.65;;;1.25;;
76107;SDS011;64834;52.516;10.528;2023-07-20T02:19:41;2.05;;;1.25;;
76107;SDS011;64834;52.516;10.528;2023-07-20T02:22:06;1.95;;;1.50;;
76107;SDS011;64834;52.516;10.528;2023-07-20T02:24:33;1.95;;;1.40;;
76107;SDS011;64834;52.516;10.528;2023-07-20T02:26:58;1.95;;;1.52;;
76107;SDS011;64834;52.516;10.528;2023-07-20T02:29:24;2.33;;;1.50;;
76107;SDS011;64834;52.516;10.528;2023-07-20T02:31:49;2.95;;;1.73;;
76107;SDS011;64834;52.516;10.528;2023-07-20T02:34:14;1.40;;;1.20;;
76107;SDS011;64834;52.516;10.528;2023-07-20T02:36:41;2.03;;;1.42;;
76107;SDS011;64834;52.516;10.528;2023-07-20T02:39:07;2.28;;;1.30;;
76107;SDS011;64834;52.516;10.528;2023-07-20T02:41:33;2.47;;;1.50;;
76107;SDS011;64834;52.516;10.528;2023-07-20T02:43:59;3.08;;;1.13;;
76107;SDS011;64834;52.516;10.528;2023-07-20T02:46:25;2.80;;;1.42;;
76107;SDS011;64834;52.516;10.528;2023-07-20T02:48:50;2.13;;;1.25;;
76107;SDS011;64834;52.516;10.528;2023-07-20T02:51:15;1.98;;;1.30;;
76107;SDS011;64834;52.516;10.528;2023-07-20T02:53:41;2.05;;;1.85;;
76107;SDS011;64834;52.516;10.528;2023-07-20T02:56:06;2.10;;;1.50;;
76107;SDS011;64834;52.516;10.528;2023-07-20T02:58:33;2.83;;;1.70;;
76107;SDS011;64834;52.516;10.528;2023-07-20T03:01:02;2.53;;;1.60;;
76107;SDS011;64834;52.516;10.528;2023-07-20T03:03:27;2.80;;;2.15;;
76107;SDS011;64834;52.516;10.528;2023-07-20T03:05:52;2.90;;;1.80;;
76107;SDS011;64834;52.516;10.528;2023-07-20T03:08:19;1.83;;;1.30;;
76107;SDS011;64834;52.516;10.528;2023-07-20T03:10:45;4.05;;;1.45;;
76107;SDS011;64834;52.516;10.528;2023-07-20T03:13:10;1.90;;;1.50;;
76107;SDS011;64834;52.516;10.528;2023-07-20T03:15:36;1.98;;;1.50;;
76107;SDS011;64834;52.516;10.528;2023-07-20T03:18:01;2.97;;;1.63;;
76107;SDS011;64834;52.516;10.528;2023-07-20T03:20:27;1.85;;;1.40;;
76107;SDS011;64834;52.516;10.528;2023-07-20T03:22:53;2.17;;;1.50;;
76107;SDS011;64834;52.516;10.528;2023-07-20T03:25:18;1.67;;;1.27;;
76107;SDS011;64834;52.516;10.528;2023-07-20T03:27:44;2.45;;;1.48;;
76107;SDS011;64834;52.516;10.528;2023-07-20T03:30:10;2.20;;;1.52;;
76107;SDS011;64834;52.516;10.528;2023-07-20T03:32:36;3.67;;;1.63;;
76107;SDS011;64834;52.516;10.528;2023-07-20T03:35:01;2.45;;;1.50;;
76107;SDS011;64834;52.516;10.528;2023-07-20T03:37:27;2.85;;;1.50;;
76107;SDS011;64834;52.516;10.528;2023-07-20T03:39:52;2.72;;;1.50;;
76107;SDS011;64834;52.516;10.528;2023-07-20T03:42:17;2.05;;;1.58;;
76107;SDS011;64834;52.516;10.528;2023-07-20T03:44:43;1.90;;;1.50;;
76107;SDS011;64834;52.516;10.528;2023-07-20T03:47:08;2.50;;;1.70;;
76107;SDS011;64834;52.516;10.528;2023-07-20T03:49:34;2.72;;;2.08;;
76107;SDS011;64834;52.516;10.528;2023-07-20T03:52:00;2.63;;;1.83;;
76107;SDS011;64834;52.516;10.528;2023-07-20T03:54:28;2.17;;;1.45;;
76107;SDS011;64834;52.516;10.528;2023-07-20T03:56:53;3.92;;;1.73;;
76107;SDS011;64834;52.516;10.528;2023-07-20T03:59:18;2.58;;;1.70;;
76107;SDS011;64834;52.516;10.528;2023-07-20T04:01:45;2.88;;;1.45;;
76107;SDS011;64834;52.516;10.528;2023-07-20T04:04:10;3.40;;;1.50;;
76107;SDS011;64834;52.516;10.528;2023-07-20T04:06:35;1.67;;;1.40;;
76107;SDS011;64834;52.516;10.528;2023-07-20T04:09:01;1.90;;;1.17;;
76107;SDS011;64834;52.516;10.528;2023-07-20T04:11:28;1.63;;;1.42;;
76107;SDS011;64834;52.516;10.528;2023-07-20T04:13:53;1.80;;;1.30;;
76107;SDS011;64834;52.516;10.528;2023-07-20T04:16:19;2.03;;;1.10;;
76107;SDS011;64834;52.516;10.528;2023-07-20T04:18:45;3.25;;;1.30;;
76107;SDS011;64834;52.516;10.528;2023-07-20T04:21:10;1.95;;;1.52;;
76107;SDS011;64834;52.516;10.528;2023-07-20T04:23:36;2.10;;;1.45;;
76107;SDS011;64834;52.516;10.528;2023-07-20T04:26:01;2.63;;;1.40;;
76107;SDS011;64834;52.516;10.528;2023-07-20T04:28:27;3.20;;;1.63;;
76107;SDS011;64834;52.516;10.528;2023-07-20T04:30:52;2.08;;;1.30;;
76107;SDS011;64834;52.516;10.528;2023-07-20T04:33:18;2.90;;;1.52;;
76107;SDS011;64834;52.516;10.528;2023-07-20T04:35:53;2.25;;;1.63;;
76107;SDS011;64834;52.516;10.528;2023-07-20T04:38:19;3.05;;;1.50;;
76107;SDS011;64834;52.516;10.528;2023-07-20T04:40:46;1.90;;;1.40;;
76107;SDS011;64834;52.516;10.528;2023-07-20T04:43:12;1.83;;;1.27;;
76107;SDS011;64834;52.516;10.528;2023-07-20T04:45:38;2.42;;;1.48;;
76107;SDS011;64834;52.516;10.528;2023-07-20T04:48:06;2.15;;;1.20;;
76107;SDS011;64834;52.516;10.528;2023-07-20T04:50:33;2.58;;;1.75;;
76107;SDS011;64834;52.516;10.528;2023-07-20T04:52:59;3.75;;;1.50;;
76107;SDS011;64834;52.516;10.528;2023-07-20T04:55:25;2.53;;;1.50;;
76107;SDS011;64834;52.516;10.528;2023-07-20T04:57:50;2.30;;;1.40;;
76107;SDS011;64834;52.516;10.528;2023-07-20T05:00:16;1.90;;;1.20;;
76107;SDS011;64834;52.516;10.528;2023-07-20T05:02:42;2.00;;;1.45;;
76107;SDS011;64834;52.516;10.528;2023-07-20T05:05:07;2.33;;;1.38;;
76107;SDS011;64834;52.516;10.528;2023-07-20T05:07:33;2.28;;;1.33;;
76107;SDS011;64834;52.516;10.528;2023-07-20T05:09:58;2.70;;;1.60;;
76107;SDS011;64834;52.516;10.528;2023-07-20T05:12:24;2.53;;;1.50;;
76107;SDS011;64834;52.516;10.528;2023-07-20T05:14:49;2.88;;;1.58;;
76107;SDS011;64834;52.516;10.528;2023-07-20T05:17:15;4.45;;;1.70;;
76107;SDS011;64834;52.516;10.528;2023-07-20T05:19:40;2.58;;;1.60;;
76107;SDS011;64834;52.516;10.528;2023-07-20T05:22:05;2.35;;;1.63;;
76107;SDS011;64834;52.516;10.528;2023-07-20T05:24:31;3.10;;;1.60;;
76107;SDS011;64834;52.516;10.528;2023-07-20T05:26:57;2.10;;;1.50;;
76107;SDS011;64834;52.516;10.528;2023-07-20T05:29:23;3.90;;;1.65;;
76107;SDS011;64834;52.516;10.528;2023-07-20T05:31:49;2.03;;;1.50;;
76107;SDS011;64834;52.516;10.528;2023-07-20T05:34:14;4.68;;;2.22;;
76107;SDS011;64834;52.516;10.528;2023-07-20T05:36:39;3.67;;;1.90;;
76107;SDS011;64834;52.516;10.528;2023-07-20T05:39:04;5.28;;;2.20;;
76107;SDS011;64834;52.516;10.528;2023-07-20T05:41:31;3.65;;;1.80;;
76107;SDS011;64834;52.516;10.528;2023-07-20T05:43:56;3.63;;;2.40;;
76107;SDS011;64834;52.516;10.528;2023-07-20T05:46:22;5.15;;;2.75;;
76107;SDS011;64834;52.516;10.528;2023-07-20T05:48:49;5.55;;;2.45;;
76107;SDS011;64834;52.516;10.528;2023-07-20T05:51:14;3.22;;;2.40;;
76107;SDS011;64834;52.516;10.528;2023-07-20T05:53:40;5.32;;;2.95;;
76107;SDS011;64834;52.516;10.528;2023-07-20T05:56:05;4.65;;;2.75;;
76107;SDS011;64834;52.516;10.528;2023-07-20T05:58:31;7.40;;;4.45;;
76107;SDS011;64834;52.516;10.528;2023-07-20T06:00:56;6.22;;;3.08;;
76107;SDS011;64834;52.516;10.528;2023-07-20T06:03:21;6.07;;;3.33;;
76107;SDS011;64834;52.516;10.528;2023-07-20T06:05:47;6.05;;;3.97;;
76107;SDS011;64834;52.516;10.528;2023-07-20T06:08:12;5.32;;;3.70;;
76107;SDS011;64834;52.516;10.528;2023-07-20T06:10:37;3.83;;;2.70;;
76107;SDS011;64834;52.516;10.528;2023-07-20T06:13:03;3.22;;;1.80;;
76107;SDS011;64834;52.516;10.528;2023-07-20T06:15:30;3.05;;;1.40;;
76107;SDS011;64834;52.516;10.528;2023-07-20T06:17:57;2.28;;;1.42;;
76107;SDS011;64834;52.516;10.528;2023-07-20T06:20:23;2.08;;;0.90;;
76107;SDS011;64834;52.516;10.528;2023-07-20T06:22:48;2.45;;;0.77;;
76107;SDS011;64834;52.516;10.528;2023-07-20T06:25:14;1.48;;;0.80;;
76107;SDS011;64834;52.516;10.528;2023-07-20T06:27:39;1.63;;;0.70;;
76107;SDS011;64834;52.516;10.528;2023-07-20T06:30:04;1.42;;;0.70;;
76107;SDS011;64834;52.516;10.528;2023-07-20T06:32:30;0.98;;;0.50;;
76107;SDS011;64834;52.516;10.528;2023-07-20T06:34:56;1.13;;;0.40;;
76107;SDS011;64834;52.516;10.528;2023-07-20T06:37:21;0.73;;;0.50;;
76107;SDS011;64834;52.516;10.528;2023-07-20T06:39:46;1.08;;;0.70;;
76107;SDS011;64834;52.516;10.528;2023-07-20T06:42:12;0.80;;;0.52;;
76107;SDS011;64834;52.516;10.528;2023-07-20T06:44:37;1.00;;;0.57;;
76107;SDS011;64834;52.516;10.528;2023-07-20T06:47:02;1.00;;;0.40;;
76107;SDS011;64834;52.516;10.528;2023-07-20T06:49:28;0.88;;;0.47;;
76107;SDS011;64834;52.516;10.528;2023-07-20T06:51:53;2.28;;;0.75;;
76107;SDS011;64834;52.516;10.528;2023-07-20T06:54:19;0.70;;;0.40;;
76107;SDS011;64834;52.516;10.528;2023-07-20T06:56:44;1.30;;;0.52;;
76107;SDS011;64834;52.516;10.528;2023-07-20T06:59:09;2.42;;;0.40;;
76107;SDS011;64834;52.516;10.528;2023-07-20T07:01:35;1.23;;;0.50;;
76107;SDS011;64834;52.516;10.528;2023-07-20T07:04:00;2.15;;;0.57;;
76107;SDS011;64834;52.516;10.528;2023-07-20T07:06:25;1.00;;;0.52;;
76107;SDS011;64834;52.516;10.528;2023-07-20T07:08:52;1.17;;;0.60;;
76107;SDS011;64834;52.516;10.528;2023-07-20T07:11:17;1.20;;;0.60;;
76107;SDS011;64834;52.516;10.528;2023-07-20T07:13:43;0.60;;;0.32;;
76107;SDS011;64834;52.516;10.528;2023-07-20T07:16:08;3.22;;;1.15;;
76107;SDS011;64834;52.516;10.528;2023-07-20T07:18:33;1.10;;;0.63;;
76107;SDS011;64834;52.516;10.528;2023-07-20T07:20:59;0.80;;;0.60;;
76107;SDS011;64834;52.516;10.528;2023-07-20T07:23:24;1.45;;;0.88;;
76107;SDS011;64834;52.516;10.528;2023-07-20T07:25:49;0.95;;;0.70;;
76107;SDS011;64834;52.516;10.528;2023-07-20T07:28:15;1.70;;;0.65;;
76107;SDS011;64834;52.516;10.528;2023-07-20T07:30:40;1.50;;;0.75;;
76107;SDS011;64834;52.516;10.528;2023-07-20T07:33:05;1.38;;;0.60;;
76107;SDS011;64834;52.516;10.528;2023-07-20T07:35:31;0.70;;;0.57;;
76107;SDS011;64834;52.516;10.528;2023-07-20T07:37:56;1.13;;;0.50;;
76107;SDS011;64834;52.516;10.528;2023-07-20T07:40:21;2.05;;;0.70;;
76107;SDS011;64834;52.516;10.528;2023-07-20T07:42:47;1.20;;;0.50;;
76107;SDS011;64834;52.516;10.528;2023-07-20T07:45:12;0.93;;;0.52;;
76107;SDS011;64834;52.516;10.528;2023-07-20T07:47:38;1.70;;;0.47;;
76107;SDS011;64834;52.516;10.528;2023-07-20T07:50:04;1.85;;;0.80;;
76107;SDS011;64834;52.516;10.528;2023-07-20T07:52:30;1.30;;;0.50;;
76107;SDS011;64834;52.516;10.528;2023-07-20T07:54:55;1.40;;;0.52;;
76107;SDS011;64834;52.516;10.528;2023-07-20T07:57:20;1.15;;;0.52;;
76107;SDS011;64834;52.516;10.528;2023-07-20T07:59:46;1.05;;;0.60;;
76107;SDS011;64834;52.516;10.528;2023-07-20T08:02:11;2.33;;;0.60;;
76107;SDS011;64834;52.516;10.528;2023-07-20T08:04:36;1.38;;;0.60;;
76107;SDS011;64834;52.516;10.528;2023-07-20T08:07:03;2.70;;;0.73;;
76107;SDS011;64834;52.516;10.528;2023-07-20T08:09:28;2.00;;;1.10;;
76107;SDS011;64834;52.516;10.528;2023-07-20T08:11:54;1.52;;;1.02;;
76107;SDS011;64834;52.516;10.528;2023-07-20T08:14:19;1.30;;;0.80;;
76107;SDS011;64834;52.516;10.528;2023-07-20T08:16:45;1.13;;;0.63;;
76107;SDS011;64834;52.516;10.528;2023-07-20T08:19:10;0.90;;;0.50;;
76107;SDS011;64834;52.516;10.528;2023-07-20T08:21:36;2.67;;;0.73;;
76107;SDS011;64834;52.516;10.528;2023-07-20T08:24:01;1.33;;;0.80;;
76107;SDS011;64834;52.516;10.528;2023-07-20T08:26:26;1.08;;;0.57;;
76107;SDS011;64834;52.516;10.528;2023-07-20T08:28:52;0.80;;;0.40;;
76107;SDS011;64834;52.516;10.528;2023-07-20T08:31:17;0.90;;;0.57;;
76107;SDS011;64834;52.516;10.528;2023-07-20T08:33:43;1.38;;;0.50;;
76107;SDS011;64834;52.516;10.528;2023-07-20T08:36:08;2.05;;;0.75;;
76107;SDS011;64834;52.516;10.528;2023-07-20T08:38:34;3.15;;;0.70;;
76107;SDS011;64834;52.516;10.528;2023-07-20T08:40:59;1.10;;;0.70;;
76107;SDS011;64834;52.516;10.528;2023-07-20T08:43:26;1.88;;;0.75;;
76107;SDS011;64834;52.516;10.528;2023-07-20T08:45:54;0.88;;;0.60;;
76107;SDS011;64834;52.516;10.528;2023-07-20T08:48:20;2.97;;;0.70;;
76107;SDS011;64834;52.516;10.528;2023-07-20T08:50:45;2.67;;;0.80;;
76107;SDS011;64834;52.516;10.528;2023-07-20T08:53:12;0.88;;;0.60;;
76107;SDS011;64834;52.516;10.528;2023-07-20T08:55:39;1.42;;;0.60;;
76107;SDS011;64834;52.516;10.528;2023-07-20T08:58:05;1.50;;;0.60;;
76107;SDS011;64834;52.516;10.528;2023-07-20T09:00:33;0.75;;;0.40;;
76107;SDS011;64834;52.516;10.528;2023-07-20T09:02:59;1.83;;;0.43;;
76107;SDS011;64834;52.516;10.528;2023-07-20T09:05:27;0.80;;;0.45;;
76107;SDS011;64834;52.516;10.528;2023-07-20T09:07:53;0.85;;;0.50;;
76107;SDS011;64834;52.516;10.528;2023-07-20T09:10:20;0.77;;;0.65;;
76107;SDS011;64834;52.516;10.528;2023-07-20T09:12:46;0.65;;;0.40;;
76107;SDS011;64834;52.516;10.528;2023-07-20T09:15:12;0.60;;;0.40;;
76107;SDS011;64834;52.516;10.528;2023-07-20T09:17:37;1.85;;;0.30;;
76107;SDS011;64834;52.516;10.528;2023-07-20T09:20:03;1.17;;;0.30;;
76107;SDS011;64834;52.516;10.528;2023-07-20T09:22:33;0.80;;;0.40;;
76107;SDS011;64834;52.516;10.528;2023-07-20T09:24:58;1.10;;;0.45;;
76107;SDS011;64834;52.516;10.528;2023-07-20T09:27:34;1.13;;;0.50;;
76107;SDS011;64834;52.516;10.528;2023-07-20T09:30:01;1.25;;;0.60;;
76107;SDS011;64834;52.516;10.528;2023-07-20T09:32:27;1.08;;;0.52;;
76107;SDS011;64834;52.516;10.528;2023-07-20T09:34:52;0.73;;;0.50;;
76107;SDS011;64834;52.516;10.528;2023-07-20T09:37:21;1.10;;;0.60;;
76107;SDS011;64834;52.516;10.528;2023-07-20T09:39:53;1.10;;;0.43;;
76107;SDS011;64834;52.516;10.528;2023-07-20T09:42:18;1.25;;;0.50;;
76107;SDS011;64834;52.516;10.528;2023-07-20T09:44:45;1.55;;;0.40;;
76107;SDS011;64834;52.516;10.528;2023-07-20T09:47:11;0.88;;;0.40;;
76107;SDS011;64834;52.516;10.528;2023-07-20T09:49:40;1.17;;;0.50;;
76107;SDS011;64834;52.516;10.528;2023-07-20T09:52:06;0.55;;;0.35;;
76107;SDS011;64834;52.516;10.528;2023-07-20T09:56:58;1.45;;;0.50;;
76107;SDS011;64834;52.516;10.528;2023-07-20T09:59:24;1.92;;;0.70;;
76107;SDS011;64834;52.516;10.528;2023-07-20T10:01:49;1.85;;;0.70;;
76107;SDS011;64834;52.516;10.528;2023-07-20T10:04:20;1.10;;;0.65;;
76107;SDS011;64834;52.516;10.528;2023-07-20T10:06:47;2.38;;;0.70;;
76107;SDS011;64834;52.516;10.528;2023-07-20T10:09:15;0.80;;;0.50;;
76107;SDS011;64834;52.516;10.528;2023-07-20T10:11:41;1.63;;;0.98;;
76107;SDS011;64834;52.516;10.528;2023-07-20T10:14:19;0.70;;;0.57;;
76107;SDS011;64834;52.516;10.528;2023-07-20T10:16:50;1.25;;;0.60;;
76107;SDS011;64834;52.516;10.528;2023-07-20T10:19:50;2.28;;;0.70;;
76107;SDS011;64834;52.516;10.528;2023-07-20T10:22:16;1.48;;;0.70;;
76107;SDS011;64834;52.516;10.528;2023-07-20T10:24:45;1.85;;;1.20;;
76107;SDS011;64834;52.516;10.528;2023-07-20T10:27:12;0.90;;;0.60;;
76107;SDS011;64834;52.516;10.528;2023-07-20T10:29:37;1.20;;;0.73;;
76107;SDS011;64834;52.516;10.528;2023-07-20T10:32:04;0.70;;;0.40;;
76107;SDS011;64834;52.516;10.528;2023-07-20T10:34:30;0.90;;;0.60;;
76107;SDS011;64834;52.516;10.528;2023-07-20T10:36:56;1.52;;;0.60;;
76107;SDS011;64834;52.516;10.528;2023-07-20T10:39:22;2.80;;;0.70;;
76107;SDS011;64834;52.516;10.528;2023-07-20T10:41:49;1.55;;;0.80;;
76107;SDS011;64834;52.516;10.528;2023-07-20T10:44:15;1.42;;;0.55;;
76107;SDS011;64834;52.516;10.528;2023-07-20T10:46:45;0.93;;;0.60;;
76107;SDS011;64834;52.516;10.528;2023-07-20T10:49:12;1.55;;;0.65;;
76107;SDS011;64834;52.516;10.528;2023-07-20T10:51:40;1.65;;;0.85;;
76107;SDS011;64834;52.516;10.528;2023-07-20T10:54:07;3.03;;;0.50;;
76107;SDS011;64834;52.516;10.528;2023-07-20T10:56:33;1.15;;;0.70;;
76107;SDS011;64834;52.516;10.528;2023-07-20T10:58:59;1.23;;;0.75;;
76107;SDS011;64834;52.516;10.528;2023-07-20T11:01:29;5.38;;;0.70;;
76107;SDS011;64834;52.516;10.528;2023-07-20T11:03:57;0.88;;;0.40;;
76107;SDS011;64834;52.516;10.528;2023-07-20T11:08:48;2.53;;;0.70;;
76107;SDS011;64834;52.516;10.528;2023-07-20T11:11:26;1.67;;;0.60;;
76107;SDS011;64834;52.516;10.528;2023-07-20T11:13:57;2.20;;;0.93;;
76107;SDS011;64834;52.516;10.528;2023-07-20T11:19:03;1.30;;;0.98;;
76107;SDS011;64834;52.516;10.528;2023-07-20T11:21:30;0.82;;;0.50;;
76107;SDS011;64834;52.516;10.528;2023-07-20T11:24:02;1.05;;;0.50;;
76107;SDS011;64834;52.516;10.528;2023-07-20T11:26:29;0.77;;;0.40;;
76107;SDS011;64834;52.516;10.528;2023-07-20T11:28:54;2.50;;;0.52;;
76107;SDS011;64834;52.516;10.528;2023-07-20T11:31:19;0.80;;;0.50;;
76107;SDS011;64834;52.516;10.528;2023-07-20T11:33:45;0.93;;;0.60;;
76107;SDS011;64834;52.516;10.528;2023-07-20T11:36:11;0.82;;;0.50;;
76107;SDS011;64834;52.516;10.528;2023-07-20T11:38:36;4.45;;;0.50;;
76107;SDS011;64834;52.516;10.528;2023-07-20T11:41:04;2.20;;;0.57;;
76107;SDS011;64834;52.516;10.528;2023-07-20T11:43:30;1.00;;;0.50;;
76107;SDS011;64834;52.516;10.528;2023-07-20T11:45:55;0.90;;;0.47;;
76107;SDS011;64834;52.516;10.528;2023-07-20T11:48:21;1.27;;;0.55;;
76107;SDS011;64834;52.516;10.528;2023-07-20T11:50:46;1.30;;;0.70;;
76107;SDS011;64834;52.516;10.528;2023-07-20T11:53:11;1.15;;;0.60;;
76107;SDS011;64834;52.516;10.528;2023-07-20T11:55:38;1.55;;;0.60;;
76107;SDS011;64834;52.516;10.528;2023-07-20T11:58:04;1.17;;;0.40;;
76107;SDS011;64834;52.516;10.528;2023-07-20T12:00:31;2.05;;;0.80;;
76107;SDS011;64834;52.516;10.528;2023-07-20T12:05:23;1.23;;;0.52;;
76107;SDS011;64834;52.516;10.528;2023-07-20T12:07:49;1.42;;;0.50;;
76107;SDS011;64834;52.516;10.528;2023-07-20T12:10:17;1.08;;;0.50;;
76107;SDS011;64834;52.516;10.528;2023-07-20T12:12:49;1.63;;;0.60;;
76107;SDS011;64834;52.516;10.528;2023-07-20T12:17:46;1.67;;;0.30;;
76107;SDS011;64834;52.516;10.528;2023-07-20T12:20:24;1.20;;;0.55;;
76107;SDS011;64834;52.516;10.528;2023-07-20T12:22:50;1.95;;;0.60;;
76107;SDS011;64834;52.516;10.528;2023-07-20T12:25:15;2.60;;;0.60;;
76107;SDS011;64834;52.516;10.528;2023-07-20T12:27:44;1.17;;;0.63;;
76107;SDS011;64834;52.516;10.528;2023-07-20T12:30:09;0.93;;;0.52;;
76107;SDS011;64834;52.516;10.528;2023-07-20T12:32:35;3.05;;;0.63;;
76107;SDS011;64834;52.516;10.528;2023-07-20T12:35:00;1.88;;;1.00;;
76107;SDS011;64834;52.516;10.528;2023-07-20T12:37:26;1.45;;;0.68;;
76107;SDS011;64834;52.516;10.528;2023-07-20T12:39:52;1.48;;;0.70;;
76107;SDS011;64834;52.516;10.528;2023-07-20T12:42:17;2.35;;;0.60;;
76107;SDS011;64834;52.516;10.528;2023-07-20T12:44:43;2.08;;;0.70;;
76107;SDS011;64834;52.516;10.528;2023-07-20T12:47:08;1.17;;;0.57;;
76107;SDS011;64834;52.516;10.528;2023-07-20T12:49:34;2.72;;;0.85;;
76107;SDS011;64834;52.516;10.528;2023-07-20T12:51:59;2.53;;;0.70;;
76107;SDS011;64834;52.516;10.528;2023-07-20T12:54:25;1.23;;;0.63;;
76107;SDS011;64834;52.516;10.528;2023-07-20T12:56:50;1.00;;;0.50;;
76107;SDS011;64834;52.516;10.528;2023-07-20T12:59:15;2.15;;;0.50;;
76107;SDS011;64834;52.516;10.528;2023-07-20T13:01:41;1.00;;;0.50;;
76107;SDS011;64834;52.516;10.528;2023-07-20T13:04:07;1.13;;;0.50;;
76107;SDS011;64834;52.516;10.528;2023-07-20T13:06:35;2.58;;;0.75;;
76107;SDS011;64834;52.516;10.528;2023-07-20T13:09:00;0.73;;;0.50;;
76107;SDS011;64834;52.516;10.528;2023-07-20T13:11:26;1.67;;;0.63;;
76107;SDS011;64834;52.516;10.528;2023-07-20T13:13:51;1.77;;;0.65;;
76107;SDS011;64834;52.516;10.528;2023-07-20T13:16:16;1.95;;;0.60;;
76107;SDS011;64834;52.516;10.528;2023-07-20T13:18:42;0.70;;;0.40;;
76107;SDS011;64834;52.516;10.528;2023-07-20T13:21:07;0.95;;;0.50;;
76107;SDS011;64834;52.516;10.528;2023-07-20T13:23:36;2.10;;;0.50;;
76107;SDS011;64834;52.516;10.528;2023-07-20T13:26:04;1.15;;;0.60;;
76107;SDS011;64834;52.516;10.528;2023-07-20T13:28:30;2.38;;;0.40;;
76107;SDS011;64834;52.516;10.528;2023-07-20T13:30:55;1.25;;;0.60;;
76107;SDS011;64834;52.516;10.528;2023-07-20T13:33:20;0.95;;;0.40;;
76107;SDS011;64834;52.516;10.528;2023-07-20T13:35:46;1.55;;;0.98;;
76107;SDS011;64834;52.516;10.528;2023-07-20T13:38:11;1.13;;;0.60;;
76107;SDS011;64834;52.516;10.528;2023-07-20T13:40:37;1.17;;;0.57;;
76107;SDS011;64834;52.516;10.528;2023-07-20T13:43:02;1.55;;;0.50;;
76107;SDS011;64834;52.516;10.528;2023-07-20T13:45:27;4.45;;;0.73;;
76107;SDS011;64834;52.516;10.528;2023-07-20T13:47:53;2.75;;;0.60;;
76107;SDS011;64834;52.516;10.528;2023-07-20T13:50:18;2.35;;;0.65;;
76107;SDS011;64834;52.516;10.528;2023-07-20T13:52:43;1.80;;;0.50;;
76107;SDS011;64834;52.516;10.528;2023-07-20T13:55:09;1.33;;;0.60;;
76107;SDS011;64834;52.516;10.528;2023-07-20T13:57:34;1.10;;;0.68;;
76107;SDS011;64834;52.516;10.528;2023-07-20T13:59:59;1.10;;;0.40;;
76107;SDS011;64834;52.516;10.528;2023-07-20T14:02:26;1.05;;;0.60;;
76107;SDS011;64834;52.516;10.528;2023-07-20T14:04:51;1.38;;;0.70;;
76107;SDS011;64834;52.516;10.528;2023-07-20T14:07:17;1.13;;;0.70;;
76107;SDS011;64834;52.516;10.528;2023-07-20T14:09:42;2.03;;;0.70;;
76107;SDS011;64834;52.516;10.528;2023-07-20T14:12:08;4.05;;;0.63;;
76107;SDS011;64834;52.516;10.528;2023-07-20T14:14:36;1.73;;;0.70;;
76107;SDS011;64834;52.516;10.528;2023-07-20T14:17:01;2.78;;;0.80;;
76107;SDS011;64834;52.516;10.528;2023-07-20T14:19:26;2.47;;;0.82;;
76107;SDS011;64834;52.516;10.528;2023-07-20T14:21:52;4.25;;;0.75;;
76107;SDS011;64834;52.516;10.528;2023-07-20T14:24:17;1.30;;;0.90;;
76107;SDS011;64834;52.516;10.528;2023-07-20T14:26:42;2.00;;;0.90;;
76107;SDS011;64834;52.516;10.528;2023-07-20T14:29:08;1.73;;;0.80;;
76107;SDS011;64834;52.516;10.528;2023-07-20T14:31:33;1.45;;;0.80;;
76107;SDS011;64834;52.516;10.528;2023-07-20T14:33:58;1.42;;;0.70;;
76107;SDS011;64834;52.516;10.528;2023-07-20T14:36:24;4.10;;;0.70;;
76107;SDS011;64834;52.516;10.528;2023-07-20T14:38:49;2.08;;;0.80;;
76107;SDS011;64834;52.516;10.528;2023-07-20T14:41:15;1.52;;;0.80;;
76107;SDS011;64834;52.516;10.528;2023-07-20T14:43:40;2.13;;;0.80;;
76107;SDS011;64834;52.516;10.528;2023-07-20T14:46:06;2.80;;;1.17;;
76107;SDS011;64834;52.516;10.528;2023-07-20T14:48:31;3.08;;;1.13;;